Time;durP1;ratioP1;P1;durP2;ratioP2;P2;SDS_P1;SDS_P2;PMS_P1;PMS_P2;Temp;Humidity;BMP_temperature;BMP_pressure;BME280_temperature;BME280_humidity;BME280_pressure;Samples;Min_cycle;Max_cycle;Signal;HPM_P1;HPM_P2
2022/05/28 00:01:02;;;;;;;0.10;0.10;;;;;;;25.57;45.21;99585.19;5057002;28;20040;-75
2022/05/28 00:03:32;;;;;;;0.10;0.10;;;;;;;25.59;44.42;99579.78;5074596;28;20020;-75
2022/05/28 00:05:58;;;;;;;0.10;0.10;;;;;;;25.61;44.94;99582.16;5074893;28;20029;-75
2022/05/28 00:08:24;;;;;;;0.10;0.10;;;;;;;25.68;44.94;99578.19;5073994;28;20028;-75
2022/05/28 00:10:53;;;;;;;0.10;0.10;;;;;;;25.67;44.48;99574.53;5074672;28;20081;-75
2022/05/28 00:13:18;;;;;;;0.10;0.10;;;;;;;25.61;43.01;99557.28;5074880;28;20103;-75
2022/05/28 00:15:44;;;;;;;0.10;0.10;;;;;;;25.51;42.31;99549.28;5073466;28;20112;-75
2022/05/28 00:18:10;;;;;;;0.10;0.10;;;;;;;25.55;42.56;99547.03;5073988;28;20085;-75
2022/05/28 00:20:38;;;;;;;0.10;0.10;;;;;;;25.65;43.71;99544.94;5073628;28;20024;-75
2022/05/28 00:23:04;;;;;;;0.10;0.10;;;;;;;25.75;44.44;99560.75;5074396;28;20078;-75
2022/05/28 00:25:30;;;;;;;0.10;0.10;;;;;;;25.65;44.07;99544.94;5075050;28;20032;-75
2022/05/28 00:27:56;;;;;;;0.10;0.10;;;;;;;25.77;43.68;99555.34;5074699;28;20031;-75
2022/05/28 00:30:22;;;;;;;0.10;0.10;;;;;;;25.67;44.64;99559.50;5074307;28;20035;-76
2022/05/28 00:32:47;;;;;;;0.10;0.10;;;;;;;25.59;44.12;99554.16;5073383;28;20025;-76
2022/05/28 00:35:16;;;;;;;0.10;0.10;;;;;;;25.49;43.98;99544.06;5074107;28;20388;-76
2022/05/28 00:37:42;;;;;;;0.10;0.10;;;;;;;25.49;44.25;99537.59;5073311;28;20029;-76
2022/05/28 00:40:13;;;;;;;0.10;0.10;;;;;;;25.49;44.57;99532.66;5074097;28;20056;-76
2022/05/28 00:42:39;;;;;;;0.10;0.10;;;;;;;25.55;43.86;99536.44;5073211;28;20163;-76
2022/05/28 00:45:05;;;;;;;0.10;0.10;;;;;;;25.54;43.70;99534.09;5072905;28;20107;-76
2022/05/28 00:47:31;;;;;;;0.10;0.10;;;;;;;25.46;42.46;99527.97;5072836;28;20020;-76
2022/05/28 00:49:57;;;;;;;0.10;0.10;;;;;;;25.41;42.15;99528.59;5073537;28;20058;-75
2022/05/28 00:52:25;;;;;;;0.10;0.10;;;;;;;25.30;42.83;99509.19;5073215;28;20456;-76
2022/05/28 00:54:52;;;;;;;0.10;0.10;;;;;;;25.40;42.83;99517.69;5074263;28;20487;-75
2022/05/28 00:57:19;;;;;;;0.10;0.10;;;;;;;25.37;43.50;99513.75;5072635;28;20030;-75
2022/05/28 00:59:45;;;;;;;0.10;0.10;;;;;;;25.40;43.20;99511.97;5072505;28;20032;-76
2022/05/28 01:02:20;;;;;;;0.10;0.10;;;;;;;25.40;43.75;99509.13;5074009;28;20074;-76
2022/05/28 01:04:46;;;;;;;0.10;0.10;;;;;;;25.42;43.59;99500.91;5073785;28;20024;-75
2022/05/28 01:08:05;;;;;;;0.10;0.10;;;;;;;25.38;43.04;99492.53;5074015;28;20358;-75
2022/05/28 01:10:52;;;;;;;0.10;0.10;;;;;;;25.44;43.06;99478.44;5051036;28;20029;-76
2022/05/28 01:13:34;;;;;;;0.10;0.10;;;;;;;25.42;43.50;99473.22;5069272;28;20493;-75
2022/05/28 01:16:07;;;;;;;0.10;0.10;;;;;;;25.36;43.73;99472.31;5072513;28;20373;-76
2022/05/28 01:18:34;;;;;;;;;;;;;;;25.30;44.16;99480.72;5071818;28;20024;-76
2022/05/28 01:21:10;;;;;;;0.10;0.10;;;;;;;25.38;44.76;99468.97;5072305;28;19926;-76
2022/05/28 01:23:55;;;;;;;0.10;0.10;;;;;;;25.58;43.32;99477.75;5071891;28;20032;-76
2022/05/28 01:26:32;;;;;;;0.10;0.10;;;;;;;25.23;44.73;99477.41;5072380;28;20040;-74
2022/05/28 01:29:03;;;;;;;0.10;0.10;;;;;;;25.15;44.58;99482.69;5073435;28;20025;-75
2022/05/28 01:31:31;;;;;;;0.10;0.10;;;;;;;25.05;45.63;99470.50;5073484;28;20040;-75
2022/05/28 01:34:01;;;;;;;0.10;0.10;;;;;;;24.88;46.58;99475.00;5073498;28;20027;-75
2022/05/28 01:36:29;;;;;;;0.10;0.10;;;;;;;24.78;47.14;99467.75;5072141;28;20495;-75
2022/05/28 01:38:55;;;;;;;0.10;0.10;;;;;;;24.79;47.36;99466.47;5071778;28;20020;-76
2022/05/28 01:41:22;;;;;;;0.10;0.10;;;;;;;24.79;46.94;99463.63;5071893;28;20067;-75
2022/05/28 01:43:51;;;;;;;0.10;0.10;;;;;;;24.80;46.93;99460.28;5073400;28;20035;-76
2022/05/28 01:46:22;;;;;;;0.10;0.10;;;;;;;24.79;47.25;99452.25;5073391;28;20380;-75
2022/05/28 01:48:52;;;;;;;0.10;0.10;;;;;;;24.81;47.12;99450.47;5073367;28;20033;-75
2022/05/28 01:51:20;;;;;;;0.10;0.10;;;;;;;24.71;46.96;99446.09;5072242;28;20025;-75
2022/05/28 01:54:07;;;;;;;0.10;0.10;;;;;;;24.65;47.31;99441.53;5072411;28;20130;-76
2022/05/28 01:56:38;;;;;;;0.10;0.10;;;;;;;24.71;47.25;99439.59;5071931;28;20029;-75
2022/05/28 01:59:04;;;;;;;0.10;0.10;;;;;;;24.61;47.43;99443.75;5073207;28;20098;-75
2022/05/28 02:01:31;;;;;;;0.10;0.10;;;;;;;24.55;47.59;99438.72;5071740;28;20067;-75
2022/05/28 02:04:01;;;;;;;0.10;0.10;;;;;;;24.59;46.92;99434.91;5072828;28;20028;-76
2022/05/28 02:06:26;;;;;;;0.10;0.10;;;;;;;24.61;46.71;99432.38;5072317;28;20031;-76
2022/05/28 02:08:55;;;;;;;0.10;0.10;;;;;;;24.60;47.00;99439.31;5071974;28;20066;-75
2022/05/28 02:11:34;;;;;;;0.10;0.10;;;;;;;24.62;47.26;99431.13;5071699;28;20110;-75
2022/05/28 02:14:14;;;;;;;0.10;0.10;;;;;;;24.63;46.96;99433.47;5071824;28;20028;-76
2022/05/28 02:16:49;;;;;;;0.10;0.10;;;;;;;24.63;46.78;99430.63;5071804;28;20029;-75
2022/05/28 02:19:45;;;;;;;0.10;0.10;;;;;;;24.62;46.28;99425.44;5073016;28;20072;-75
2022/05/28 02:22:22;;;;;;;0.10;0.10;;;;;;;24.58;46.49;99425.59;5069355;28;20064;-75
2022/05/28 02:24:56;;;;;;;0.10;0.10;;;;;;;24.50;46.84;99418.63;5071773;28;20182;-75
2022/05/28 02:27:24;;;;;;;0.10;0.10;;;;;;;24.42;47.33;99406.81;5072297;28;20021;-76
2022/05/28 02:29:51;;;;;;;0.10;0.10;;;;;;;24.47;47.93;99411.09;5071597;28;20178;-76
2022/05/28 02:32:22;;;;;;;0.10;0.10;;;;;;;24.32;47.67;99408.06;5071726;28;20020;-75
2022/05/28 02:34:50;;;;;;;0.10;0.10;;;;;;;24.46;49.00;99407.44;5071619;28;20469;-76
2022/05/28 02:37:18;;;;;;;0.10;0.10;;;;;;;24.43;49.60;99414.09;5072949;28;20035;-75
2022/05/28 02:39:44;;;;;;;0.10;0.10;;;;;;;24.12;50.94;99399.25;5072722;28;20052;-75
2022/05/28 02:42:09;;;;;;;0.10;0.10;;;;;;;24.08;51.45;99415.69;5072873;28;20036;-75
2022/05/28 02:44:35;;;;;;;0.10;0.10;;;;;;;24.08;51.98;99410.00;5072721;28;20029;-75
2022/05/28 02:47:00;;;;;;;0.10;0.10;;;;;;;23.95;53.23;99408.09;5071412;28;20460;-76
2022/05/28 02:49:26;;;;;;;0.10;0.10;;;;;;;23.87;53.97;99412.53;5072298;28;20025;-75
2022/05/28 02:51:52;;;;;;;0.10;0.10;;;;;;;23.84;54.39;99402.09;5075419;28;20021;-76
2022/05/28 02:54:19;;;;;;;0.10;0.10;;;;;;;23.87;54.60;99395.47;5076075;28;20029;-76
2022/05/28 02:56:45;;;;;;;0.10;0.10;;;;;;;23.86;54.85;99402.41;5075590;28;20052;-76
2022/05/28 02:59:11;;;;;;;0.13;0.13;;;;;;;23.86;55.04;99404.44;5075033;28;20044;-76
2022/05/28 03:01:37;;;;;;;0.10;0.10;;;;;;;23.76;55.01;99395.16;5075186;28;20036;-76
2022/05/28 03:04:07;;;;;;;0.10;0.10;;;;;;;23.89;54.73;99407.16;5076143;28;20103;-76
2022/05/28 03:06:35;;;;;;;0.10;0.10;;;;;;;23.94;54.18;99412.19;5074825;28;20099;-75
2022/05/28 03:09:02;;;;;;;0.10;0.10;;;;;;;23.94;53.80;99409.34;5074473;28;20036;-76
2022/05/28 03:11:28;;;;;;;0.10;0.10;;;;;;;23.93;52.39;99415.53;5074700;28;20017;-75
2022/05/28 03:13:54;;;;;;;0.10;0.10;;;;;;;23.89;52.44;99421.34;5075211;28;20029;-76
2022/05/28 03:16:19;;;;;;;0.10;0.10;;;;;;;23.83;52.41;99406.19;5076003;28;20469;-76
2022/05/28 03:18:45;;;;;;;0.10;0.10;;;;;;;23.84;51.91;99390.72;5074506;28;20043;-75
2022/05/28 03:21:11;;;;;;;0.10;0.10;;;;;;;23.97;52.49;99411.25;5075903;28;20486;-75
2022/05/28 03:23:36;;;;;;;0.10;0.10;;;;;;;23.83;52.22;99386.31;5075058;28;20082;-76
2022/05/28 03:26:23;;;;;;;0.10;0.10;;;;;;;23.90;51.07;99403.03;5074387;28;20021;-75
2022/05/28 03:28:50;;;;;;;0.10;0.10;;;;;;;24.08;51.28;99421.38;5074710;28;20028;-75
2022/05/28 03:31:17;;;;;;;0.10;0.10;;;;;;;23.88;50.95;99402.72;5075930;28;20024;-75
2022/05/28 03:33:43;;;;;;;0.10;0.10;;;;;;;23.96;51.41;99406.81;5074370;28;20025;-75
2022/05/28 03:36:09;;;;;;;0.10;0.10;;;;;;;24.02;51.02;99407.78;5074329;28;20123;-75
2022/05/28 03:38:36;;;;;;;0.10;0.10;;;;;;;23.78;51.34;99389.78;5057796;28;20077;-75
2022/05/28 03:41:03;;;;;;;0.10;0.10;;;;;;;23.89;51.65;99404.31;5073737;28;20135;-75
2022/05/28 03:43:28;;;;;;;0.10;0.10;;;;;;;23.91;51.83;99406.66;5074919;28;20101;-75
2022/05/28 03:45:55;;;;;;;0.10;0.10;;;;;;;23.83;52.21;99406.19;5074057;28;20536;-75
2022/05/28 03:48:21;;;;;;;0.10;0.10;;;;;;;23.80;52.04;99392.94;5074339;28;20380;-75
2022/05/28 03:50:47;;;;;;;0.10;0.10;;;;;;;23.83;52.67;99406.19;5074085;28;20115;-75
2022/05/28 03:53:12;;;;;;;0.10;0.10;;;;;;;23.84;52.97;99413.47;5074919;28;20048;-75
2022/05/28 03:55:39;;;;;;;0.10;0.10;;;;;;;23.88;52.32;99397.06;5075604;28;20025;-75
2022/05/28 03:58:05;;;;;;;0.10;0.10;;;;;;;23.74;52.66;99386.31;5074635;28;20073;-75
2022/05/28 04:00:31;;;;;;;0.10;0.10;;;;;;;23.82;52.60;99404.63;5073484;28;20071;-75
2022/05/28 04:02:57;;;;;;;0.10;0.10;;;;;;;23.88;52.45;99402.72;5074328;28;20109;-75
2022/05/28 04:05:23;;;;;;;0.10;0.10;;;;;;;23.82;52.56;99401.78;5074773;28;20100;-75
2022/05/28 04:07:49;;;;;;;0.10;0.10;;;;;;;23.75;52.73;99393.56;5057083;28;20028;-75
2022/05/28 04:10:15;;;;;;;0.10;0.10;;;;;;;23.84;52.52;99402.09;5073898;28;20464;-75
2022/05/28 04:12:40;;;;;;;0.10;0.10;;;;;;;23.76;52.76;99392.31;5074651;28;20055;-75
2022/05/28 04:15:08;;;;;;;0.10;0.10;;;;;;;23.81;53.38;99396.56;5073585;28;20033;-75
2022/05/28 04:17:34;;;;;;;0.10;0.10;;;;;;;23.79;52.92;99399.88;5073344;28;20028;-75
2022/05/28 04:19:59;;;;;;;0.10;0.10;;;;;;;23.79;53.09;99382.84;5073535;28;20086;-75
2022/05/28 04:22:25;;;;;;;0.10;0.10;;;;;;;23.84;52.89;99385.06;5073224;28;20060;-75
2022/05/28 04:24:51;;;;;;;0.10;0.10;;;;;;;23.85;53.02;99383.78;5075091;28;20345;-76
2022/05/28 04:27:16;;;;;;;0.10;0.10;;;;;;;23.93;53.00;99387.91;5073455;28;20020;-75
2022/05/28 04:29:42;;;;;;;0.10;0.10;;;;;;;23.88;53.46;99379.22;5073111;28;20032;-75
2022/05/28 04:32:08;;;;;;;0.10;0.10;;;;;;;23.92;53.24;99377.03;5073300;28;20024;-75
2022/05/28 04:34:33;;;;;;;0.10;0.10;;;;;;;23.93;53.23;99365.16;5072996;28;20032;-75
2022/05/28 04:36:59;;;;;;;0.10;0.10;;;;;;;24.09;52.90;99371.78;5072667;28;20025;-75
2022/05/28 04:39:24;;;;;;;0.10;0.10;;;;;;;23.95;52.90;99362.63;5072566;28;20056;-76
2022/05/28 04:41:49;;;;;;;0.10;0.10;;;;;;;23.98;53.02;99364.53;5072859;28;20032;-75
2022/05/28 04:44:15;;;;;;;0.10;0.10;;;;;;;23.98;53.03;99363.75;5073342;28;20039;-75
2022/05/28 04:46:40;;;;;;;0.10;0.10;;;;;;;24.02;53.21;99362.34;5072772;28;20047;-75
2022/05/28 04:49:06;;;;;;;0.10;0.10;;;;;;;24.05;52.76;99375.56;5072847;28;20043;-76
2022/05/28 04:51:31;;;;;;;0.10;0.10;;;;;;;24.03;52.23;99369.59;5073006;28;20074;-75
2022/05/28 04:53:57;;;;;;;0.10;0.10;;;;;;;24.05;51.87;99375.56;5073292;28;20040;-76
2022/05/28 04:56:23;;;;;;;0.10;0.10;;;;;;;24.05;51.93;99369.88;5072654;28;20059;-76
2022/05/28 04:58:48;;;;;;;0.10;0.10;;;;;;;24.16;51.25;99363.72;5073968;28;20024;-75
2022/05/28 05:01:22;;;;;;;0.10;0.10;;;;;;;24.30;51.22;99365.13;5072598;28;20157;-75
2022/05/28 05:03:48;;;;;;;0.10;0.10;;;;;;;24.27;51.93;99372.53;5072501;28;20032;-75
2022/05/28 05:06:13;;;;;;;0.10;0.10;;;;;;;24.36;52.22;99368.16;5073818;28;20114;-76
2022/05/28 05:08:39;;;;;;;0.10;0.10;;;;;;;24.50;52.16;99370.31;5072106;28;20533;-76
2022/05/28 05:11:05;;;;;;;0.10;0.10;;;;;;;24.82;50.27;99354.53;5072433;28;20020;-75
2022/05/28 05:13:31;;;;;;;0.10;0.10;;;;;;;25.10;49.90;99363.00;5071807;28;20036;-76
2022/05/28 05:15:56;;;;;;;0.10;0.10;;;;;;;25.58;48.24;99350.34;5072939;28;20062;-76
2022/05/28 05:18:22;;;;;;;0.10;0.10;;;;;;;26.17;46.91;99357.47;5073999;28;20036;-76
2022/05/28 05:20:47;;;;;;;0.10;0.10;;;;;;;26.68;45.52;99351.38;5072394;28;20048;-76
2022/05/28 05:23:13;;;;;;;0.10;0.10;;;;;;;27.10;44.62;99338.84;5072351;28;20037;-75
2022/05/28 05:25:39;;;;;;;0.10;0.10;;;;;;;27.40;43.71;99348.09;5073585;28;20059;-76
2022/05/28 05:28:05;;;;;;;0.10;0.10;;;;;;;27.66;43.65;99343.22;5055538;28;20461;-76
2022/05/28 05:30:31;;;;;;;0.10;0.10;;;;;;;27.93;42.71;99338.38;5072463;28;20032;-75
2022/05/28 05:32:56;;;;;;;0.10;0.10;;;;;;;28.28;41.73;99340.25;5074346;28;20033;-75
2022/05/28 05:35:22;;;;;;;0.10;0.10;;;;;;;28.42;41.17;99339.41;5073240;28;20522;-76
2022/05/28 05:37:50;;;;;;;0.10;0.10;;;;;;;28.59;40.41;99334.59;5073327;28;20032;-77
2022/05/28 05:40:16;;;;;;;0.10;0.10;;;;;;;28.36;40.74;99329.97;5071928;28;20484;-75
2022/05/28 05:42:43;;;;;;;0.10;0.10;;;;;;;28.51;40.43;99319.19;5055385;28;20049;-75
2022/05/28 05:45:09;;;;;;;0.10;0.10;;;;;;;29.01;39.87;99332.34;5072841;28;20042;-76
2022/05/28 05:47:35;;;;;;;0.10;0.10;;;;;;;29.21;39.13;99318.66;5073661;28;20131;-75
2022/05/28 05:50:01;;;;;;;0.10;0.10;;;;;;;29.38;39.19;99320.81;5073022;28;20064;-76
2022/05/28 05:52:26;;;;;;;0.10;0.10;;;;;;;29.74;38.25;99319.19;5072381;28;20024;-76
2022/05/28 05:54:52;;;;;;;0.10;0.10;;;;;;;30.23;37.31;99317.75;5073033;28;20486;-73
2022/05/28 05:57:18;;;;;;;0.10;0.10;;;;;;;30.45;36.43;99324.81;5073270;28;20044;-76
2022/05/28 05:59:44;;;;;;;0.10;0.10;;;;;;;30.76;36.37;99320.91;5072127;28;20028;-73
2022/05/28 06:02:10;;;;;;;0.10;0.10;;;;;;;31.13;36.35;99314.06;5071993;28;20032;-72
2022/05/28 06:04:36;;;;;;;0.10;0.10;;;;;;;31.25;36.28;99322.16;5074088;28;20074;-72
2022/05/28 06:07:06;;;;;;;0.10;0.10;;;;;;;31.46;36.06;99321.81;5073451;28;20024;-72
2022/05/28 06:09:32;;;;;;;0.10;0.10;;;;;;;31.81;35.25;99321.97;5072113;28;20098;-73
2022/05/28 06:11:57;;;;;;;0.10;0.10;;;;;;;32.42;34.30;99322.91;5055364;28;20469;-72
2022/05/28 06:14:22;;;;;;;0.10;0.10;;;;;;;32.51;33.48;99324.66;5072173;28;20033;-73
2022/05/28 06:16:48;;;;;;;0.10;0.10;;;;;;;32.14;35.22;99328.81;5071772;28;20059;-72
2022/05/28 06:19:14;;;;;;;0.10;0.10;;;;;;;31.83;34.11;99324.31;5071846;28;20055;-73
2022/05/28 06:21:39;;;;;;;0.10;0.10;;;;;;;31.97;35.31;99322.41;5071517;28;20036;-73
2022/05/28 06:24:05;;;;;;;0.10;0.10;;;;;;;30.97;38.48;99319.31;5073742;28;20036;-72
2022/05/28 06:26:31;;;;;;;0.10;0.10;;;;;;;31.38;38.78;99317.97;5076262;28;20020;-72
2022/05/28 06:28:59;;;;;;;0.10;0.10;;;;;;;31.24;38.77;99314.03;5075530;28;20597;-71
2022/05/28 06:31:25;;;;;;;0.10;0.10;;;;;;;31.66;38.70;99307.09;5075212;28;20028;-72
2022/05/28 06:33:50;;;;;;;0.10;0.10;;;;;;;32.06;37.80;99307.69;5075844;28;20032;-72
2022/05/28 06:36:16;;;;;;;0.10;0.10;;;;;;;32.31;36.88;99320.84;5076804;28;20472;-72
2022/05/28 06:38:42;;;;;;;0.10;0.10;;;;;;;32.40;36.93;99311.16;5076574;28;20087;-72
2022/05/28 06:41:08;;;;;;;0.10;0.10;;;;;;;31.92;37.85;99291.56;5074710;28;20095;-72
2022/05/28 06:43:34;;;;;;;0.10;0.10;;;;;;;32.29;36.83;99309.09;5075126;28;20032;-72
2022/05/28 06:46:01;;;;;;;0.10;0.10;;;;;;;32.53;35.26;99311.28;5075153;28;20039;-72
2022/05/28 06:48:30;;;;;;;0.10;0.10;;;;;;;32.56;35.24;99310.22;5075735;28;20119;-72
2022/05/28 06:51:01;;;;;;;0.10;0.10;;;;;;;33.26;33.78;99315.59;5076113;28;20430;-73
2022/05/28 06:53:32;;;;;;;0.10;0.10;;;;;;;33.50;33.87;99309.81;5075397;28;20115;-72
2022/05/28 06:55:58;;;;;;;0.10;0.10;;;;;;;33.78;32.86;99308.69;5076743;28;20111;-72
2022/05/28 06:58:23;;;;;;;0.10;0.10;;;;;;;33.54;32.05;99310.28;5074946;28;20124;-72
2022/05/28 07:00:49;;;;;;;0.10;0.10;;;;;;;33.84;31.87;99301.50;5075358;28;20046;-72
2022/05/28 07:03:18;;;;;;;0.10;0.10;;;;;;;34.64;31.30;99311.31;5076264;28;20532;-72
2022/05/28 07:05:47;;;;;;;0.10;0.10;;;;;;;33.82;32.19;99307.03;5074911;28;20078;-72
2022/05/28 07:08:13;;;;;;;0.10;0.10;;;;;;;33.97;32.03;99305.81;5075506;28;20032;-72
2022/05/28 07:10:43;;;;;;;0.10;0.10;;;;;;;34.74;30.83;99305.13;5075008;28;20024;-72
2022/05/28 07:13:10;;;;;;;0.10;0.10;;;;;;;33.68;32.08;99290.97;5076402;28;20025;-72
2022/05/28 07:15:35;;;;;;;0.00;0.00;;;;;;;34.00;31.41;99282.41;5074938;28;20477;-73
2022/05/28 07:18:01;;;;;;;0.10;0.10;;;;;;;34.54;30.73;99283.41;5074689;28;20057;-72
2022/05/28 07:20:26;;;;;;;0.10;0.10;;;;;;;34.62;30.14;99273.56;5074731;28;20384;-73
2022/05/28 07:22:52;;;;;;;0.10;0.10;;;;;;;35.31;29.57;99273.84;5074564;28;20035;-73
2022/05/28 07:25:18;;;;;;;0.10;0.10;;;;;;;34.05;30.25;99278.66;5074884;28;20027;-72
2022/05/28 07:27:44;;;;;;;0.10;0.10;;;;;;;33.22;31.61;99248.81;5075089;28;20472;-73
2022/05/28 07:30:10;;;;;;;0.10;0.10;;;;;;;33.98;30.39;99267.75;5074670;28;20024;-73
2022/05/28 07:32:35;;;;;;;0.10;0.10;;;;;;;34.71;29.29;99268.66;5074441;28;20086;-73
2022/05/28 07:35:01;;;;;;;0.10;0.10;;;;;;;34.93;28.36;99263.25;5073572;28;20107;-73
2022/05/28 07:37:29;;;;;;;0.10;0.10;;;;;;;34.63;28.94;99265.69;5074903;28;20039;-73
2022/05/28 07:39:58;;;;;;;0.10;0.10;;;;;;;34.98;26.44;99263.72;5073942;28;20075;-73
2022/05/28 07:42:26;;;;;;;0.10;0.10;;;;;;;35.28;24.42;99258.41;5074585;28;20056;-73
2022/05/28 07:44:51;;;;;;;0.10;0.10;;;;;;;35.02;24.87;99256.28;5074717;28;20532;-73
2022/05/28 07:47:18;;;;;;;0.10;0.10;;;;;;;35.27;25.27;99256.84;5074420;28;20124;-72
2022/05/28 07:49:44;;;;;;;0.10;0.10;;;;;;;35.48;24.81;99253.25;5075093;28;20031;-72
2022/05/28 07:52:10;;;;;;;0.10;0.10;;;;;;;35.58;24.36;99248.56;5075421;28;20059;-72
2022/05/28 07:54:35;;;;;;;0.10;0.10;;;;;;;35.19;24.66;99244.38;5074031;28;20433;-73
2022/05/28 07:57:01;;;;;;;0.10;0.10;;;;;;;35.91;23.91;99247.81;5075214;28;20028;-73
2022/05/28 07:59:26;;;;;;;0.10;0.10;;;;;;;35.83;23.88;99244.06;5074257;28;20025;-72
2022/05/28 08:01:52;;;;;;;0.10;0.10;;;;;;;35.80;23.39;99239.41;5074330;28;20025;-72
2022/05/28 08:04:17;;;;;;;0.10;0.10;;;;;;;35.82;22.67;99242.50;5073672;28;20028;-73
2022/05/28 08:06:43;;;;;;;0.10;0.10;;;;;;;35.68;23.36;99235.97;5074574;28;20025;-73
2022/05/28 08:09:11;;;;;;;0.10;0.10;;;;;;;35.58;22.69;99237.00;5074793;28;20082;-73
2022/05/28 08:11:37;;;;;;;0.10;0.10;;;;;;;35.97;22.66;99241.16;5074792;28;20032;-72
2022/05/28 08:14:03;;;;;;;0.10;0.10;;;;;;;36.54;22.23;99244.22;5073455;28;20032;-72
2022/05/28 08:16:32;;;;;;;0.10;0.10;;;;;;;35.98;22.81;99229.00;5074691;28;20028;-72
2022/05/28 08:18:57;;;;;;;0.10;0.10;;;;;;;36.26;22.43;99233.31;5073421;28;20063;-72
2022/05/28 08:24:07;;;;;;;0.10;0.10;;;;;;;35.57;23.91;99221.00;5075222;28;20128;-72
2022/05/28 08:26:35;;;;;;;0.10;0.10;;;;;;;35.40;24.17;99219.22;5073367;28;20115;-72
2022/05/28 08:29:00;;;;;;;0.10;0.10;;;;;;;35.67;24.04;99204.72;5074421;28;20024;-72
2022/05/28 08:31:26;;;;;;;0.10;0.10;;;;;;;35.82;24.13;99204.88;5073226;28;20491;-72
2022/05/28 08:33:51;;;;;;;0.10;0.10;;;;;;;36.75;22.86;99204.38;5074840;28;20028;-72
2022/05/28 08:36:18;;;;;;;0.10;0.10;;;;;;;37.28;22.15;99206.84;5073919;28;20426;-72
2022/05/28 08:38:44;;;;;;;0.10;0.10;;;;;;;36.56;23.12;99212.56;5072973;28;20085;-73
2022/05/28 08:41:34;;;;;;;0.10;0.10;;;;;;;36.05;23.26;99218.84;5072787;28;20036;-72
2022/05/28 08:44:16;;;;;;;0.10;0.10;;;;;;;36.15;24.27;99211.22;5073572;28;20040;-72
2022/05/28 08:46:43;;;;;;;0.10;0.10;;;;;;;36.14;24.07;99216.25;5072201;28;20028;-72
2022/05/28 08:49:12;;;;;;;0.10;0.10;;;;;;;36.51;23.89;99219.28;5073844;28;20047;-73
2022/05/28 08:51:51;;;;;;;0.10;0.10;;;;;;;36.98;22.71;99228.53;5072987;28;20120;-73
2022/05/28 08:54:36;;;;;;;0.10;0.10;;;;;;;37.76;22.13;99227.56;5073718;28;20545;-73
2022/05/28 08:57:15;;;;;;;0.10;0.10;;;;;;;36.46;22.55;99215.97;5072351;28;20491;-72
2022/05/28 08:59:46;;;;;;;0.10;0.10;;;;;;;36.04;23.17;99206.50;5072842;28;20086;-72
2022/05/28 09:02:37;;;;;;;0.10;0.10;;;;;;;35.37;23.15;99213.78;5074430;28;20028;-72
2022/05/28 09:05:05;;;;;;;0.10;0.10;;;;;;;36.40;22.07;99206.63;5073881;28;20036;-72
2022/05/28 09:07:30;;;;;;;0.10;0.10;;;;;;;36.32;22.11;99210.78;5073142;28;20056;-72
2022/05/28 09:09:57;;;;;;;0.10;0.10;;;;;;;34.90;22.45;99203.69;5072185;28;20051;-72
2022/05/28 09:12:29;;;;;;;0.10;0.10;;;;;;;35.80;21.95;99210.47;5072289;28;20107;-72
2022/05/28 09:14:54;;;;;;;0.10;0.10;;;;;;;36.49;21.07;99210.38;5072977;28;20050;-72
2022/05/28 09:17:34;;;;;;;0.10;0.10;;;;;;;36.12;20.62;99212.38;5072864;28;20472;-73
2022/05/28 09:20:11;;;;;;;0.10;0.10;;;;;;;35.84;20.60;99205.09;5072542;28;20029;-72
2022/05/28 09:22:37;;;;;;;0.10;0.10;;;;;;;35.78;21.33;99221.81;5072697;28;20021;-72
2022/05/28 09:25:03;;;;;;;0.10;0.10;;;;;;;35.30;22.83;99226.03;5073759;28;20388;-72
2022/05/28 09:27:46;;;;;;;0.10;0.10;;;;;;;35.73;22.98;99222.72;5072642;28;20085;-73
2022/05/28 09:30:12;;;;;;;0.10;0.10;;;;;;;35.43;23.08;99223.13;5071961;28;20071;-72
2022/05/28 09:32:55;;;;;;;0.10;0.10;;;;;;;34.80;24.63;99228.56;5072226;28;20501;-73
2022/05/28 09:35:55;;;;;;;0.10;0.10;;;;;;;35.38;24.19;99221.91;5072938;28;20032;-73
2022/05/28 09:38:40;;;;;;;0.10;0.10;;;;;;;34.93;25.21;99214.13;5072939;28;20422;-72
2022/05/28 09:41:19;;;;;;;0.10;0.10;;;;;;;33.97;25.92;99222.91;5071891;28;20081;-73
2022/05/28 09:44:08;;;;;;;0.10;0.10;;;;;;;34.90;25.74;99223.13;5073937;28;20103;-72
2022/05/28 09:46:39;;;;;;;0.10;0.10;;;;;;;34.98;26.12;99211.72;5072318;28;20051;-73
2022/05/28 09:49:17;;;;;;;0.10;0.10;;;;;;;35.29;26.21;99213.69;5072629;28;20483;-73
2022/05/28 09:51:58;;;;;;;0.10;0.10;;;;;;;34.85;26.46;99216.13;5071633;28;20036;-73
2022/05/28 09:54:30;;;;;;;0.10;0.10;;;;;;;35.07;26.11;99214.94;5072531;28;20024;-72
2022/05/28 09:57:43;;;;;;;0.10;0.10;;;;;;;34.52;25.36;99228.34;5073962;28;20036;-73
2022/05/28 10:00:12;;;;;;;0.00;0.00;;;;;;;34.79;25.23;99223.38;5055068;28;20028;-73
2022/05/28 10:02:43;;;;;;;0.10;0.10;;;;;;;35.25;24.39;99221.91;5071620;28;20041;-73
2022/05/28 10:05:20;;;;;;;0.10;0.10;;;;;;;35.00;25.12;99227.19;5075929;28;20039;-73
2022/05/28 10:07:53;;;;;;;0.10;0.10;;;;;;;34.87;25.20;99219.25;5077558;28;20460;-73
2022/05/28 10:10:22;;;;;;;0.10;0.10;;;;;;;34.74;26.36;99225.03;5059305;28;20583;-72
2022/05/28 10:12:49;;;;;;;0.10;0.10;;;;;;;35.11;25.59;99214.59;5075776;28;20057;-73
2022/05/28 10:15:28;;;;;;;0.10;0.10;;;;;;;34.99;25.62;99219.81;5076374;28;20353;-73
2022/05/28 10:17:58;;;;;;;0.10;0.10;;;;;;;35.22;25.68;99220.16;5076882;28;20107;-72
2022/05/28 10:20:24;;;;;;;0.10;0.10;;;;;;;35.65;24.82;99216.84;5076220;28;20029;-73
2022/05/28 10:22:53;;;;;;;0.10;0.10;;;;;;;36.17;24.58;99223.03;5075841;28;20032;-73
2022/05/28 10:25:31;;;;;;;0.10;0.10;;;;;;;36.42;23.82;99214.78;5075794;28;20032;-73
2022/05/28 10:27:57;;;;;;;0.10;0.10;;;;;;;35.59;24.77;99206.75;5077423;28;20032;-73
2022/05/28 10:30:25;;;;;;;0.10;0.10;;;;;;;35.01;25.38;99213.50;5075730;28;20031;-73
2022/05/28 10:32:54;;;;;;;0.10;0.10;;;;;;;34.03;26.29;99212.03;5076635;28;20032;-73
2022/05/28 10:35:26;;;;;;;0.10;0.10;;;;;;;34.80;25.17;99208.34;5077069;28;20032;-72
2022/05/28 10:37:53;;;;;;;0.00;0.00;;;;;;;35.63;24.79;99202.16;5076711;28;20028;-73
2022/05/28 10:40:24;;;;;;;0.10;0.10;;;;;;;36.06;23.95;99215.41;5076319;28;20052;-73
2022/05/28 10:42:58;;;;;;;0.10;0.10;;;;;;;36.21;23.65;99208.97;5076657;28;20024;-72
2022/05/28 10:45:32;;;;;;;0.10;0.10;;;;;;;36.40;23.27;99192.16;5075672;28;20082;-73
2022/05/28 10:48:23;;;;;;;0.10;0.10;;;;;;;35.78;24.26;99195.78;5075335;28;20028;-72
2022/05/28 10:50:57;;;;;;;0.10;0.10;;;;;;;36.04;23.88;99176.78;5076838;28;20029;-73
2022/05/28 10:54:00;;;;;;;0.10;0.10;;;;;;;35.83;24.49;99197.75;5076357;28;20070;-72
2022/05/28 10:56:26;;;;;;;0.10;0.10;;;;;;;35.94;23.61;99190.94;5057316;28;20095;-73
2022/05/28 10:59:15;;;;;;;0.10;0.10;;;;;;;36.14;23.88;99198.09;5076077;28;20416;-72
2022/05/28 11:02:06;;;;;;;0.10;0.10;;;;;;;34.89;24.89;99178.22;5064882;28;20044;-73
2022/05/28 11:04:53;;;;;;;0.10;0.10;;;;;;;34.26;25.50;99166.28;5075020;28;20120;-73
2022/05/28 11:07:51;;;;;;;0.10;0.10;;;;;;;33.88;26.10;99166.38;5076709;28;20039;-73
2022/05/28 11:10:54;;;;;;;0.10;0.10;;;;;;;33.97;26.64;99173.84;5074509;28;20027;-73
2022/05/28 11:13:28;;;;;;;0.10;0.10;;;;;;;33.92;25.47;99168.16;5076336;28;20073;-73
2022/05/28 11:16:03;;;;;;;0.10;0.10;;;;;;;33.62;25.44;99135.31;5074689;28;20028;-72
2022/05/28 11:18:47;;;;;;;0.10;0.10;;;;;;;33.94;25.02;99163.44;5075116;28;20036;-73
2022/05/28 11:21:36;;;;;;;0.10;0.10;;;;;;;34.25;24.52;99161.84;5074463;28;20024;-72
2022/05/28 11:24:30;;;;;;;0.10;0.10;;;;;;;34.34;24.63;99125.97;5074625;28;20041;-73
2022/05/28 11:27:23;;;;;;;0.10;0.10;;;;;;;35.09;24.36;99157.34;5074457;28;20059;-73
2022/05/28 11:30:02;;;;;;;0.10;0.10;;;;;;;35.03;24.19;99155.91;5074923;28;20028;-72
2022/05/28 11:32:33;;;;;;;0.10;0.10;;;;;;;35.34;23.39;99154.19;5074707;28;20035;-72
2022/05/28 11:35:17;;;;;;;0.10;0.10;;;;;;;34.90;23.22;99148.78;5074126;28;20118;-72
2022/05/28 11:38:02;;;;;;;0.10;0.10;;;;;;;35.05;23.72;99159.00;5074429;28;20383;-72
2022/05/28 11:40:33;;;;;;;0.10;0.10;;;;;;;34.80;23.93;99150.56;5073887;28;20056;-72
2022/05/28 11:43:21;;;;;;;0.10;0.10;;;;;;;34.14;24.13;99151.28;5074856;28;20457;-72
2022/05/28 11:46:03;;;;;;;0.10;0.10;;;;;;;34.38;23.88;99141.66;5069351;28;20128;-73
2022/05/28 11:51:37;;;;;;;0.10;0.10;;;;;;;33.93;24.76;99143.72;5075011;28;20047;-72
2022/05/28 11:54:11;;;;;;;0.10;0.10;;;;;;;33.55;25.11;99115.75;5074101;28;20025;-72